sensor_id;sensor_type;location;lat;lon;timestamp;P1;durP1;ratioP1;P2;durP2;ratioP2
18407;SDS011;9330;52.210;21.174;2024-01-30T00:00:32;26.73;;;17.33;;
18407;SDS011;9330;52.210;21.174;2024-01-30T00:02:59;30.45;;;17.70;;
18407;SDS011;9330;52.210;21.174;2024-01-30T00:05:27;26.42;;;17.33;;
18407;SDS011;9330;52.210;21.174;2024-01-30T00:07:54;26.70;;;17.98;;
18407;SDS011;9330;52.210;21.174;2024-01-30T00:10:21;28.70;;;18.10;;
18407;SDS011;9330;52.210;21.174;2024-01-30T00:12:48;25.77;;;16.90;;
18407;SDS011;9330;52.210;21.174;2024-01-30T00:15:15;27.17;;;17.15;;
18407;SDS011;9330;52.210;21.174;2024-01-30T00:17:42;26.45;;;16.95;;
18407;SDS011;9330;52.210;21.174;2024-01-30T00:20:09;26.40;;;17.63;;
18407;SDS011;9330;52.210;21.174;2024-01-30T00:22:37;26.23;;;17.58;;
18407;SDS011;9330;52.210;21.174;2024-01-30T00:25:04;29.98;;;18.02;;
18407;SDS011;9330;52.210;21.174;2024-01-30T00:27:31;32.55;;;18.90;;
18407;SDS011;9330;52.210;21.174;2024-01-30T00:29:58;30.27;;;18.23;;
18407;SDS011;9330;52.210;21.174;2024-01-30T00:32:25;26.77;;;17.00;;
18407;SDS011;9330;52.210;21.174;2024-01-30T00:34:52;27.92;;;17.70;;
18407;SDS011;9330;52.210;21.174;2024-01-30T00:37:19;29.20;;;18.05;;
18407;SDS011;9330;52.210;21.174;2024-01-30T00:39:47;31.88;;;17.67;;
18407;SDS011;9330;52.210;21.174;2024-01-30T00:42:12;26.27;;;17.63;;
18407;SDS011;9330;52.210;21.174;2024-01-30T00:44:39;27.33;;;17.45;;
18407;SDS011;9330;52.210;21.174;2024-01-30T00:47:06;25.90;;;16.75;;
18407;SDS011;9330;52.210;21.174;2024-01-30T00:49:33;30.70;;;18.60;;
18407;SDS011;9330;52.210;21.174;2024-01-30T00:52:00;26.52;;;17.42;;
18407;SDS011;9330;52.210;21.174;2024-01-30T00:54:27;26.50;;;17.27;;
18407;SDS011;9330;52.210;21.174;2024-01-30T00:56:55;25.85;;;16.80;;
18407;SDS011;9330;52.210;21.174;2024-01-30T00:59:22;25.20;;;17.42;;
18407;SDS011;9330;52.210;21.174;2024-01-30T01:01:49;26.02;;;16.77;;
18407;SDS011;9330;52.210;21.174;2024-01-30T01:04:16;28.73;;;17.02;;
18407;SDS011;9330;52.210;21.174;2024-01-30T01:06:43;29.00;;;18.25;;
18407;SDS011;9330;52.210;21.174;2024-01-30T01:09:10;27.88;;;17.02;;
18407;SDS011;9330;52.210;21.174;2024-01-30T01:11:37;25.65;;;16.88;;
18407;SDS011;9330;52.210;21.174;2024-01-30T01:14:05;28.13;;;16.55;;
18407;SDS011;9330;52.210;21.174;2024-01-30T01:16:32;25.25;;;17.00;;
18407;SDS011;9330;52.210;21.174;2024-01-30T01:18:59;29.70;;;17.38;;
18407;SDS011;9330;52.210;21.174;2024-01-30T01:21:26;25.73;;;16.38;;
18407;SDS011;9330;52.210;21.174;2024-01-30T01:23:53;26.38;;;17.08;;
18407;SDS011;9330;52.210;21.174;2024-01-30T01:26:20;26.75;;;17.23;;
18407;SDS011;9330;52.210;21.174;2024-01-30T01:28:47;27.00;;;16.92;;
18407;SDS011;9330;52.210;21.174;2024-01-30T01:31:15;29.77;;;17.83;;
18407;SDS011;9330;52.210;21.174;2024-01-30T01:33:42;24.95;;;17.00;;
18407;SDS011;9330;52.210;21.174;2024-01-30T01:36:09;26.63;;;16.40;;
18407;SDS011;9330;52.210;21.174;2024-01-30T01:38:36;26.08;;;17.48;;
18407;SDS011;9330;52.210;21.174;2024-01-30T01:41:03;27.83;;;17.30;;
18407;SDS011;9330;52.210;21.174;2024-01-30T01:43:30;27.55;;;17.65;;
18407;SDS011;9330;52.210;21.174;2024-01-30T01:45:56;27.77;;;17.92;;
18407;SDS011;9330;52.210;21.174;2024-01-30T01:48:25;27.45;;;16.15;;
18407;SDS011;9330;52.210;21.174;2024-01-30T01:50:53;24.40;;;16.58;;
18407;SDS011;9330;52.210;21.174;2024-01-30T01:53:19;27.25;;;17.50;;
18407;SDS011;9330;52.210;21.174;2024-01-30T01:55:46;27.60;;;17.35;;
18407;SDS011;9330;52.210;21.174;2024-01-30T01:58:14;29.13;;;17.65;;
18407;SDS011;9330;52.210;21.174;2024-01-30T02:00:41;28.45;;;17.42;;
18407;SDS011;9330;52.210;21.174;2024-01-30T02:03:09;26.67;;;16.75;;
18407;SDS011;9330;52.210;21.174;2024-01-30T02:05:38;25.00;;;15.93;;
18407;SDS011;9330;52.210;21.174;2024-01-30T02:08:07;25.95;;;17.05;;
18407;SDS011;9330;52.210;21.174;2024-01-30T02:10:35;28.05;;;17.73;;
18407;SDS011;9330;52.210;21.174;2024-01-30T02:13:02;29.27;;;17.35;;
18407;SDS011;9330;52.210;21.174;2024-01-30T02:15:29;30.40;;;18.05;;
18407;SDS011;9330;52.210;21.174;2024-01-30T02:17:56;27.98;;;18.48;;
18407;SDS011;9330;52.210;21.174;2024-01-30T02:20:23;28.52;;;17.83;;
18407;SDS011;9330;52.210;21.174;2024-01-30T02:22:52;26.58;;;16.67;;
18407;SDS011;9330;52.210;21.174;2024-01-30T02:25:29;24.95;;;17.45;;
18407;SDS011;9330;52.210;21.174;2024-01-30T02:27:57;29.58;;;18.23;;
18407;SDS011;9330;52.210;21.174;2024-01-30T02:30:23;30.42;;;18.33;;
18407;SDS011;9330;52.210;21.174;2024-01-30T02:32:50;27.75;;;18.10;;
18407;SDS011;9330;52.210;21.174;2024-01-30T02:35:17;28.83;;;17.30;;
18407;SDS011;9330;52.210;21.174;2024-01-30T02:37:44;28.83;;;17.30;;
18407;SDS011;9330;52.210;21.174;2024-01-30T02:40:12;27.42;;;18.13;;
18407;SDS011;9330;52.210;21.174;2024-01-30T02:42:39;30.98;;;18.10;;
18407;SDS011;9330;52.210;21.174;2024-01-30T02:45:07;28.67;;;17.45;;
18407;SDS011;9330;52.210;21.174;2024-01-30T02:47:34;26.35;;;17.50;;
18407;SDS011;9330;52.210;21.174;2024-01-30T02:50:01;29.65;;;18.58;;
18407;SDS011;9330;52.210;21.174;2024-01-30T02:52:28;26.85;;;17.75;;
18407;SDS011;9330;52.210;21.174;2024-01-30T02:54:55;27.73;;;18.35;;
18407;SDS011;9330;52.210;21.174;2024-01-30T02:57:23;27.50;;;17.65;;
18407;SDS011;9330;52.210;21.174;2024-01-30T02:59:50;29.85;;;18.08;;
18407;SDS011;9330;52.210;21.174;2024-01-30T03:02:17;29.88;;;17.88;;
18407;SDS011;9330;52.210;21.174;2024-01-30T03:04:45;27.73;;;18.00;;
18407;SDS011;9330;52.210;21.174;2024-01-30T03:07:12;29.10;;;18.23;;
18407;SDS011;9330;52.210;21.174;2024-01-30T03:09:40;27.88;;;17.70;;
18407;SDS011;9330;52.210;21.174;2024-01-30T03:12:08;27.40;;;17.85;;
18407;SDS011;9330;52.210;21.174;2024-01-30T03:14:36;32.17;;;19.10;;
18407;SDS011;9330;52.210;21.174;2024-01-30T03:17:03;32.30;;;19.10;;
18407;SDS011;9330;52.210;21.174;2024-01-30T03:19:30;28.38;;;18.05;;
18407;SDS011;9330;52.210;21.174;2024-01-30T03:21:57;32.15;;;17.65;;
18407;SDS011;9330;52.210;21.174;2024-01-30T03:24:24;27.48;;;18.33;;
18407;SDS011;9330;52.210;21.174;2024-01-30T03:26:51;35.38;;;19.55;;
18407;SDS011;9330;52.210;21.174;2024-01-30T03:29:18;32.00;;;18.17;;
18407;SDS011;9330;52.210;21.174;2024-01-30T03:31:46;32.50;;;18.48;;
18407;SDS011;9330;52.210;21.174;2024-01-30T03:34:13;32.90;;;18.77;;
18407;SDS011;9330;52.210;21.174;2024-01-30T03:36:39;28.50;;;18.60;;
18407;SDS011;9330;52.210;21.174;2024-01-30T03:39:06;29.25;;;18.05;;
18407;SDS011;9330;52.210;21.174;2024-01-30T03:41:33;30.02;;;18.92;;
18407;SDS011;9330;52.210;21.174;2024-01-30T03:44:07;28.52;;;16.92;;
18407;SDS011;9330;52.210;21.174;2024-01-30T03:46:34;25.92;;;17.27;;
18407;SDS011;9330;52.210;21.174;2024-01-30T03:49:02;32.28;;;18.08;;
18407;SDS011;9330;52.210;21.174;2024-01-30T03:51:29;28.50;;;17.65;;
18407;SDS011;9330;52.210;21.174;2024-01-30T03:53:56;27.35;;;17.60;;
18407;SDS011;9330;52.210;21.174;2024-01-30T03:56:23;30.05;;;18.30;;
18407;SDS011;9330;52.210;21.174;2024-01-30T03:58:50;32.47;;;20.00;;
18407;SDS011;9330;52.210;21.174;2024-01-30T04:01:17;33.03;;;21.02;;
18407;SDS011;9330;52.210;21.174;2024-01-30T04:03:44;32.80;;;19.05;;
18407;SDS011;9330;52.210;21.174;2024-01-30T04:06:12;33.65;;;19.88;;
18407;SDS011;9330;52.210;21.174;2024-01-30T04:08:39;30.38;;;19.05;;
18407;SDS011;9330;52.210;21.174;2024-01-30T04:11:06;28.55;;;18.60;;
18407;SDS011;9330;52.210;21.174;2024-01-30T04:13:33;29.25;;;18.58;;
18407;SDS011;9330;52.210;21.174;2024-01-30T04:16:00;28.35;;;19.35;;
18407;SDS011;9330;52.210;21.174;2024-01-30T04:18:28;28.50;;;18.70;;
18407;SDS011;9330;52.210;21.174;2024-01-30T04:20:54;32.03;;;17.77;;
18407;SDS011;9330;52.210;21.174;2024-01-30T04:23:23;30.67;;;19.02;;
18407;SDS011;9330;52.210;21.174;2024-01-30T04:25:49;31.85;;;18.75;;
18407;SDS011;9330;52.210;21.174;2024-01-30T04:28:16;33.50;;;19.27;;
18407;SDS011;9330;52.210;21.174;2024-01-30T04:30:43;29.13;;;18.52;;
18407;SDS011;9330;52.210;21.174;2024-01-30T04:33:10;30.38;;;20.08;;
18407;SDS011;9330;52.210;21.174;2024-01-30T04:35:37;31.55;;;18.75;;
18407;SDS011;9330;52.210;21.174;2024-01-30T04:38:04;36.60;;;19.75;;
18407;SDS011;9330;52.210;21.174;2024-01-30T04:40:32;31.23;;;19.92;;
18407;SDS011;9330;52.210;21.174;2024-01-30T04:42:59;31.27;;;19.40;;
18407;SDS011;9330;52.210;21.174;2024-01-30T04:45:26;27.13;;;18.13;;
18407;SDS011;9330;52.210;21.174;2024-01-30T04:47:53;29.13;;;19.42;;
18407;SDS011;9330;52.210;21.174;2024-01-30T04:50:20;33.63;;;20.00;;
18407;SDS011;9330;52.210;21.174;2024-01-30T04:52:46;33.22;;;19.17;;
18407;SDS011;9330;52.210;21.174;2024-01-30T04:55:13;29.20;;;19.13;;
18407;SDS011;9330;52.210;21.174;2024-01-30T04:57:42;29.70;;;18.83;;
18407;SDS011;9330;52.210;21.174;2024-01-30T05:00:09;35.05;;;19.98;;
18407;SDS011;9330;52.210;21.174;2024-01-30T05:02:36;30.15;;;19.10;;
18407;SDS011;9330;52.210;21.174;2024-01-30T05:05:03;33.58;;;19.42;;
18407;SDS011;9330;52.210;21.174;2024-01-30T05:07:31;30.88;;;19.63;;
18407;SDS011;9330;52.210;21.174;2024-01-30T05:09:57;37.88;;;21.92;;
18407;SDS011;9330;52.210;21.174;2024-01-30T05:12:24;32.28;;;20.15;;
18407;SDS011;9330;52.210;21.174;2024-01-30T05:14:53;29.52;;;18.75;;
18407;SDS011;9330;52.210;21.174;2024-01-30T05:17:19;31.95;;;19.88;;
18407;SDS011;9330;52.210;21.174;2024-01-30T05:19:46;32.83;;;19.98;;
18407;SDS011;9330;52.210;21.174;2024-01-30T05:22:13;31.17;;;19.65;;
18407;SDS011;9330;52.210;21.174;2024-01-30T05:24:40;31.83;;;19.83;;
18407;SDS011;9330;52.210;21.174;2024-01-30T05:27:08;30.40;;;19.25;;
18407;SDS011;9330;52.210;21.174;2024-01-30T05:29:34;36.33;;;21.15;;
18407;SDS011;9330;52.210;21.174;2024-01-30T05:32:03;32.10;;;19.40;;
18407;SDS011;9330;52.210;21.174;2024-01-30T05:34:31;31.85;;;19.85;;
18407;SDS011;9330;52.210;21.174;2024-01-30T05:36:58;31.52;;;19.00;;
18407;SDS011;9330;52.210;21.174;2024-01-30T05:39:25;31.48;;;19.63;;
18407;SDS011;9330;52.210;21.174;2024-01-30T05:41:51;30.77;;;19.58;;
18407;SDS011;9330;52.210;21.174;2024-01-30T05:44:18;29.23;;;20.15;;
18407;SDS011;9330;52.210;21.174;2024-01-30T05:46:45;35.13;;;21.48;;
18407;SDS011;9330;52.210;21.174;2024-01-30T05:49:13;33.58;;;20.60;;
18407;SDS011;9330;52.210;21.174;2024-01-30T05:51:40;32.50;;;20.67;;
18407;SDS011;9330;52.210;21.174;2024-01-30T05:54:07;30.42;;;19.13;;
18407;SDS011;9330;52.210;21.174;2024-01-30T05:56:34;34.08;;;19.92;;
18407;SDS011;9330;52.210;21.174;2024-01-30T05:59:00;29.38;;;19.83;;
18407;SDS011;9330;52.210;21.174;2024-01-30T06:01:27;30.35;;;19.73;;
18407;SDS011;9330;52.210;21.174;2024-01-30T06:03:54;37.13;;;21.45;;
18407;SDS011;9330;52.210;21.174;2024-01-30T06:06:22;34.45;;;20.75;;
18407;SDS011;9330;52.210;21.174;2024-01-30T06:08:49;32.50;;;20.45;;
18407;SDS011;9330;52.210;21.174;2024-01-30T06:11:16;32.45;;;19.85;;
18407;SDS011;9330;52.210;21.174;2024-01-30T06:13:43;31.15;;;20.10;;
18407;SDS011;9330;52.210;21.174;2024-01-30T06:16:10;32.38;;;20.20;;
18407;SDS011;9330;52.210;21.174;2024-01-30T06:18:37;33.38;;;20.58;;
18407;SDS011;9330;52.210;21.174;2024-01-30T06:21:04;32.50;;;20.33;;
18407;SDS011;9330;52.210;21.174;2024-01-30T06:23:33;34.47;;;20.02;;
18407;SDS011;9330;52.210;21.174;2024-01-30T06:25:59;32.83;;;19.95;;
18407;SDS011;9330;52.210;21.174;2024-01-30T06:28:26;34.28;;;21.38;;
18407;SDS011;9330;52.210;21.174;2024-01-30T06:30:54;32.85;;;20.45;;
18407;SDS011;9330;52.210;21.174;2024-01-30T06:33:21;33.50;;;20.73;;
18407;SDS011;9330;52.210;21.174;2024-01-30T06:35:48;30.92;;;19.60;;
18407;SDS011;9330;52.210;21.174;2024-01-30T06:38:15;31.63;;;19.98;;
18407;SDS011;9330;52.210;21.174;2024-01-30T06:40:43;30.00;;;19.35;;
18407;SDS011;9330;52.210;21.174;2024-01-30T06:43:10;32.47;;;20.33;;
18407;SDS011;9330;52.210;21.174;2024-01-30T06:45:36;34.95;;;21.58;;
18407;SDS011;9330;52.210;21.174;2024-01-30T06:48:03;35.88;;;21.42;;
18407;SDS011;9330;52.210;21.174;2024-01-30T06:50:31;32.17;;;20.77;;
18407;SDS011;9330;52.210;21.174;2024-01-30T06:52:58;35.28;;;22.77;;
18407;SDS011;9330;52.210;21.174;2024-01-30T06:55:24;33.88;;;20.95;;
18407;SDS011;9330;52.210;21.174;2024-01-30T06:57:53;32.30;;;19.33;;
18407;SDS011;9330;52.210;21.174;2024-01-30T07:00:19;31.85;;;20.10;;
18407;SDS011;9330;52.210;21.174;2024-01-30T07:02:47;34.20;;;21.08;;
18407;SDS011;9330;52.210;21.174;2024-01-30T07:05:14;31.10;;;19.83;;
18407;SDS011;9330;52.210;21.174;2024-01-30T07:07:42;37.63;;;23.48;;
18407;SDS011;9330;52.210;21.174;2024-01-30T07:10:09;33.22;;;20.27;;
18407;SDS011;9330;52.210;21.174;2024-01-30T07:12:36;34.50;;;21.23;;
18407;SDS011;9330;52.210;21.174;2024-01-30T07:15:04;35.20;;;22.48;;
18407;SDS011;9330;52.210;21.174;2024-01-30T07:17:33;31.88;;;20.50;;
18407;SDS011;9330;52.210;21.174;2024-01-30T07:20:00;34.22;;;21.23;;
18407;SDS011;9330;52.210;21.174;2024-01-30T07:22:28;35.55;;;21.70;;
18407;SDS011;9330;52.210;21.174;2024-01-30T07:24:55;33.08;;;20.50;;
18407;SDS011;9330;52.210;21.174;2024-01-30T07:27:22;30.85;;;20.08;;
18407;SDS011;9330;52.210;21.174;2024-01-30T07:29:48;33.53;;;21.23;;
18407;SDS011;9330;52.210;21.174;2024-01-30T07:32:17;31.60;;;20.33;;
18407;SDS011;9330;52.210;21.174;2024-01-30T07:34:44;32.15;;;20.48;;
18407;SDS011;9330;52.210;21.174;2024-01-30T07:37:11;31.45;;;19.55;;
18407;SDS011;9330;52.210;21.174;2024-01-30T07:39:40;30.65;;;19.90;;
18407;SDS011;9330;52.210;21.174;2024-01-30T07:42:07;31.65;;;20.23;;
18407;SDS011;9330;52.210;21.174;2024-01-30T07:44:34;30.88;;;19.90;;
18407;SDS011;9330;52.210;21.174;2024-01-30T07:47:01;33.63;;;19.98;;
18407;SDS011;9330;52.210;21.174;2024-01-30T07:49:30;28.55;;;19.50;;
18407;SDS011;9330;52.210;21.174;2024-01-30T07:51:57;32.72;;;20.38;;
18407;SDS011;9330;52.210;21.174;2024-01-30T07:54:24;30.70;;;20.42;;
18407;SDS011;9330;52.210;21.174;2024-01-30T07:56:51;31.10;;;19.88;;
18407;SDS011;9330;52.210;21.174;2024-01-30T07:59:21;30.10;;;18.70;;
18407;SDS011;9330;52.210;21.174;2024-01-30T08:01:49;31.65;;;20.88;;
18407;SDS011;9330;52.210;21.174;2024-01-30T08:04:17;30.33;;;19.45;;
18407;SDS011;9330;52.210;21.174;2024-01-30T08:06:45;28.95;;;19.13;;
18407;SDS011;9330;52.210;21.174;2024-01-30T08:09:12;28.67;;;18.75;;
18407;SDS011;9330;52.210;21.174;2024-01-30T08:11:38;26.25;;;18.05;;
18407;SDS011;9330;52.210;21.174;2024-01-30T08:14:05;29.38;;;19.73;;
18407;SDS011;9330;52.210;21.174;2024-01-30T08:16:32;31.63;;;19.70;;
18407;SDS011;9330;52.210;21.174;2024-01-30T08:18:59;28.10;;;17.80;;
18407;SDS011;9330;52.210;21.174;2024-01-30T08:21:26;28.92;;;18.13;;
18407;SDS011;9330;52.210;21.174;2024-01-30T08:23:54;29.75;;;18.70;;
18407;SDS011;9330;52.210;21.174;2024-01-30T08:26:21;31.90;;;18.58;;
18407;SDS011;9330;52.210;21.174;2024-01-30T08:28:48;31.65;;;18.98;;
18407;SDS011;9330;52.210;21.174;2024-01-30T08:31:15;28.33;;;18.23;;
18407;SDS011;9330;52.210;21.174;2024-01-30T08:33:42;24.98;;;16.63;;
18407;SDS011;9330;52.210;21.174;2024-01-30T08:36:09;27.42;;;18.20;;
18407;SDS011;9330;52.210;21.174;2024-01-30T08:38:36;29.15;;;17.80;;
18407;SDS011;9330;52.210;21.174;2024-01-30T08:41:04;27.45;;;18.92;;
18407;SDS011;9330;52.210;21.174;2024-01-30T08:43:30;26.35;;;17.63;;
18407;SDS011;9330;52.210;21.174;2024-01-30T08:45:58;30.25;;;18.92;;
18407;SDS011;9330;52.210;21.174;2024-01-30T08:48:25;29.48;;;19.33;;
18407;SDS011;9330;52.210;21.174;2024-01-30T08:50:52;28.13;;;18.00;;
18407;SDS011;9330;52.210;21.174;2024-01-30T08:53:19;28.58;;;18.10;;
18407;SDS011;9330;52.210;21.174;2024-01-30T08:55:46;30.02;;;19.70;;
18407;SDS011;9330;52.210;21.174;2024-01-30T08:58:14;27.33;;;18.38;;
18407;SDS011;9330;52.210;21.174;2024-01-30T09:00:43;26.92;;;17.65;;
18407;SDS011;9330;52.210;21.174;2024-01-30T09:03:10;28.70;;;19.13;;
18407;SDS011;9330;52.210;21.174;2024-01-30T09:05:36;25.27;;;18.17;;
18407;SDS011;9330;52.210;21.174;2024-01-30T09:08:03;25.60;;;17.35;;
18407;SDS011;9330;52.210;21.174;2024-01-30T09:10:30;28.55;;;17.45;;
18407;SDS011;9330;52.210;21.174;2024-01-30T09:12:57;28.27;;;18.40;;
18407;SDS011;9330;52.210;21.174;2024-01-30T09:15:25;29.77;;;18.33;;
18407;SDS011;9330;52.210;21.174;2024-01-30T09:17:52;29.38;;;19.23;;
18407;SDS011;9330;52.210;21.174;2024-01-30T09:20:19;26.73;;;18.10;;
18407;SDS011;9330;52.210;21.174;2024-01-30T09:22:47;27.98;;;19.52;;
18407;SDS011;9330;52.210;21.174;2024-01-30T09:25:14;24.80;;;16.98;;
18407;SDS011;9330;52.210;21.174;2024-01-30T09:27:41;24.88;;;17.42;;
18407;SDS011;9330;52.210;21.174;2024-01-30T09:30:08;25.27;;;16.88;;
18407;SDS011;9330;52.210;21.174;2024-01-30T09:32:36;23.15;;;16.60;;
18407;SDS011;9330;52.210;21.174;2024-01-30T09:35:03;25.17;;;16.52;;
18407;SDS011;9330;52.210;21.174;2024-01-30T09:37:31;27.38;;;17.15;;
18407;SDS011;9330;52.210;21.174;2024-01-30T09:39:58;25.90;;;17.17;;
18407;SDS011;9330;52.210;21.174;2024-01-30T09:42:26;26.52;;;16.73;;
18407;SDS011;9330;52.210;21.174;2024-01-30T09:44:57;24.25;;;16.73;;
18407;SDS011;9330;52.210;21.174;2024-01-30T09:47:24;23.17;;;15.85;;
18407;SDS011;9330;52.210;21.174;2024-01-30T09:49:53;24.20;;;16.83;;
18407;SDS011;9330;52.210;21.174;2024-01-30T09:52:22;27.67;;;17.05;;
18407;SDS011;9330;52.210;21.174;2024-01-30T09:54:49;23.80;;;15.93;;
18407;SDS011;9330;52.210;21.174;2024-01-30T09:57:18;21.85;;;15.23;;
18407;SDS011;9330;52.210;21.174;2024-01-30T09:59:46;26.42;;;16.75;;
18407;SDS011;9330;52.210;21.174;2024-01-30T10:02:12;25.42;;;16.25;;
18407;SDS011;9330;52.210;21.174;2024-01-30T10:04:40;25.25;;;15.00;;
18407;SDS011;9330;52.210;21.174;2024-01-30T10:07:08;23.65;;;15.23;;
18407;SDS011;9330;52.210;21.174;2024-01-30T10:09:37;23.20;;;14.77;;
18407;SDS011;9330;52.210;21.174;2024-01-30T10:12:05;23.30;;;15.25;;
18407;SDS011;9330;52.210;21.174;2024-01-30T10:14:32;24.55;;;14.55;;
18407;SDS011;9330;52.210;21.174;2024-01-30T10:17:00;22.13;;;13.48;;
18407;SDS011;9330;52.210;21.174;2024-01-30T10:19:28;23.45;;;14.30;;
18407;SDS011;9330;52.210;21.174;2024-01-30T10:21:54;22.60;;;14.90;;
18407;SDS011;9330;52.210;21.174;2024-01-30T10:24:25;20.73;;;14.55;;
18407;SDS011;9330;52.210;21.174;2024-01-30T10:26:50;23.52;;;14.30;;
18407;SDS011;9330;52.210;21.174;2024-01-30T10:29:17;23.63;;;13.77;;
18407;SDS011;9330;52.210;21.174;2024-01-30T10:31:44;20.60;;;14.55;;
18407;SDS011;9330;52.210;21.174;2024-01-30T10:34:12;23.23;;;13.70;;
18407;SDS011;9330;52.210;21.174;2024-01-30T10:36:39;21.75;;;13.50;;
18407;SDS011;9330;52.210;21.174;2024-01-30T10:39:07;20.85;;;13.75;;
18407;SDS011;9330;52.210;21.174;2024-01-30T10:41:43;22.90;;;14.27;;
18407;SDS011;9330;52.210;21.174;2024-01-30T10:44:10;21.63;;;13.07;;
18407;SDS011;9330;52.210;21.174;2024-01-30T10:46:38;22.10;;;13.55;;
18407;SDS011;9330;52.210;21.174;2024-01-30T10:49:07;20.65;;;13.55;;
18407;SDS011;9330;52.210;21.174;2024-01-30T10:51:36;21.48;;;13.43;;
18407;SDS011;9330;52.210;21.174;2024-01-30T10:54:04;22.15;;;13.38;;
18407;SDS011;9330;52.210;21.174;2024-01-30T10:56:32;20.30;;;13.18;;
18407;SDS011;9330;52.210;21.174;2024-01-30T10:59:02;21.23;;;14.05;;
18407;SDS011;9330;52.210;21.174;2024-01-30T11:01:30;17.40;;;12.60;;
18407;SDS011;9330;52.210;21.174;2024-01-30T11:03:57;19.48;;;12.50;;
18407;SDS011;9330;52.210;21.174;2024-01-30T11:06:24;22.75;;;13.40;;
18407;SDS011;9330;52.210;21.174;2024-01-30T11:09:01;18.45;;;11.93;;
18407;SDS011;9330;52.210;21.174;2024-01-30T11:11:32;22.98;;;12.55;;
18407;SDS011;9330;52.210;21.174;2024-01-30T11:14:15;21.65;;;13.50;;
18407;SDS011;9330;52.210;21.174;2024-01-30T11:16:42;18.50;;;12.60;;
18407;SDS011;9330;52.210;21.174;2024-01-30T11:19:10;21.70;;;12.88;;
18407;SDS011;9330;52.210;21.174;2024-01-30T11:21:40;21.48;;;12.35;;
18407;SDS011;9330;52.210;21.174;2024-01-30T11:24:08;16.90;;;11.63;;
18407;SDS011;9330;52.210;21.174;2024-01-30T11:26:34;19.90;;;12.45;;
18407;SDS011;9330;52.210;21.174;2024-01-30T11:29:03;18.08;;;12.95;;
18407;SDS011;9330;52.210;21.174;2024-01-30T11:31:31;20.02;;;12.13;;
18407;SDS011;9330;52.210;21.174;2024-01-30T11:33:58;18.85;;;12.60;;
18407;SDS011;9330;52.210;21.174;2024-01-30T11:36:26;20.25;;;13.00;;
18407;SDS011;9330;52.210;21.174;2024-01-30T11:38:54;19.15;;;12.98;;
18407;SDS011;9330;52.210;21.174;2024-01-30T11:41:20;17.98;;;12.07;;
18407;SDS011;9330;52.210;21.174;2024-01-30T11:43:53;19.02;;;13.05;;
18407;SDS011;9330;52.210;21.174;2024-01-30T11:46:20;20.48;;;13.07;;
18407;SDS011;9330;52.210;21.174;2024-01-30T11:48:48;18.63;;;12.60;;
18407;SDS011;9330;52.210;21.174;2024-01-30T11:51:15;20.80;;;12.30;;
18407;SDS011;9330;52.210;21.174;2024-01-30T11:53:44;20.02;;;12.70;;
18407;SDS011;9330;52.210;21.174;2024-01-30T11:56:12;20.30;;;12.50;;
18407;SDS011;9330;52.210;21.174;2024-01-30T11:58:42;20.50;;;12.57;;
18407;SDS011;9330;52.210;21.174;2024-01-30T12:01:09;20.13;;;12.63;;
18407;SDS011;9330;52.210;21.174;2024-01-30T12:03:36;17.73;;;12.00;;
18407;SDS011;9330;52.210;21.174;2024-01-30T12:06:05;19.40;;;11.95;;
18407;SDS011;9330;52.210;21.174;2024-01-30T12:08:32;20.48;;;12.52;;
18407;SDS011;9330;52.210;21.174;2024-01-30T12:10:59;18.33;;;11.25;;
18407;SDS011;9330;52.210;21.174;2024-01-30T12:13:30;17.48;;;11.50;;
18407;SDS011;9330;52.210;21.174;2024-01-30T12:15:57;18.35;;;11.82;;
18407;SDS011;9330;52.210;21.174;2024-01-30T12:18:24;16.52;;;11.63;;
18407;SDS011;9330;52.210;21.174;2024-01-30T12:20:57;15.82;;;10.98;;
18407;SDS011;9330;52.210;21.174;2024-01-30T12:23:26;17.65;;;11.65;;
18407;SDS011;9330;52.210;21.174;2024-01-30T12:25:53;17.27;;;11.63;;
18407;SDS011;9330;52.210;21.174;2024-01-30T12:28:20;17.30;;;12.05;;
18407;SDS011;9330;52.210;21.174;2024-01-30T12:30:47;15.55;;;9.82;;
18407;SDS011;9330;52.210;21.174;2024-01-30T12:33:16;16.30;;;11.05;;
18407;SDS011;9330;52.210;21.174;2024-01-30T12:35:45;18.10;;;11.23;;
18407;SDS011;9330;52.210;21.174;2024-01-30T12:38:12;17.27;;;11.23;;
18407;SDS011;9330;52.210;21.174;2024-01-30T12:40:41;18.00;;;10.90;;
18407;SDS011;9330;52.210;21.174;2024-01-30T12:43:08;16.52;;;10.10;;
18407;SDS011;9330;52.210;21.174;2024-01-30T12:45:35;17.50;;;11.50;;
18407;SDS011;9330;52.210;21.174;2024-01-30T12:48:02;18.80;;;11.45;;
18407;SDS011;9330;52.210;21.174;2024-01-30T12:50:30;20.33;;;12.32;;
18407;SDS011;9330;52.210;21.174;2024-01-30T12:52:56;19.27;;;12.48;;
18407;SDS011;9330;52.210;21.174;2024-01-30T12:55:23;16.90;;;11.45;;
18407;SDS011;9330;52.210;21.174;2024-01-30T12:57:54;17.15;;;11.48;;
18407;SDS011;9330;52.210;21.174;2024-01-30T13:00:21;18.58;;;12.00;;
18407;SDS011;9330;52.210;21.174;2024-01-30T13:02:48;17.70;;;11.38;;
18407;SDS011;9330;52.210;21.174;2024-01-30T13:05:15;19.65;;;12.25;;
18407;SDS011;9330;52.210;21.174;2024-01-30T13:07:42;20.10;;;12.38;;
18407;SDS011;9330;52.210;21.174;2024-01-30T13:10:09;23.10;;;12.02;;
18407;SDS011;9330;52.210;21.174;2024-01-30T13:12:35;16.83;;;11.38;;
18407;SDS011;9330;52.210;21.174;2024-01-30T13:15:05;21.13;;;11.77;;
18407;SDS011;9330;52.210;21.174;2024-01-30T13:17:32;19.23;;;11.30;;
18407;SDS011;9330;52.210;21.174;2024-01-30T13:19:59;17.48;;;11.48;;
18407;SDS011;9330;52.210;21.174;2024-01-30T13:22:26;17.02;;;11.90;;
18407;SDS011;9330;52.210;21.174;2024-01-30T13:24:53;19.42;;;11.93;;
18407;SDS011;9330;52.210;21.174;2024-01-30T13:27:20;17.23;;;11.55;;
18407;SDS011;9330;52.210;21.174;2024-01-30T13:29:47;17.52;;;11.82;;
18407;SDS011;9330;52.210;21.174;2024-01-30T13:32:15;17.15;;;11.63;;
18407;SDS011;9330;52.210;21.174;2024-01-30T13:34:42;18.75;;;11.85;;
18407;SDS011;9330;52.210;21.174;2024-01-30T13:37:09;16.83;;;11.05;;
18407;SDS011;9330;52.210;21.174;2024-01-30T13:39:36;21.30;;;11.48;;
18407;SDS011;9330;52.210;21.174;2024-01-30T13:42:04;19.02;;;11.68;;
18407;SDS011;9330;52.210;21.174;2024-01-30T13:44:31;17.70;;;10.90;;
18407;SDS011;9330;52.210;21.174;2024-01-30T13:46:58;16.77;;;11.40;;
18407;SDS011;9330;52.210;21.174;2024-01-30T13:49:26;16.80;;;11.05;;
18407;SDS011;9330;52.210;21.174;2024-01-30T13:51:53;16.45;;;11.02;;
18407;SDS011;9330;52.210;21.174;2024-01-30T13:54:20;14.90;;;10.50;;
18407;SDS011;9330;52.210;21.174;2024-01-30T13:56:46;17.27;;;10.63;;
18407;SDS011;9330;52.210;21.174;2024-01-30T13:59:13;23.35;;;12.40;;
18407;SDS011;9330;52.210;21.174;2024-01-30T14:01:40;20.38;;;11.90;;
18407;SDS011;9330;52.210;21.174;2024-01-30T14:04:07;15.18;;;11.13;;
18407;SDS011;9330;52.210;21.174;2024-01-30T14:06:35;23.70;;;11.45;;
18407;SDS011;9330;52.210;21.174;2024-01-30T14:09:02;18.92;;;11.75;;
18407;SDS011;9330;52.210;21.174;2024-01-30T14:11:29;18.38;;;11.48;;
18407;SDS011;9330;52.210;21.174;2024-01-30T14:13:55;19.90;;;11.85;;
18407;SDS011;9330;52.210;21.174;2024-01-30T14:16:22;15.85;;;10.98;;
18407;SDS011;9330;52.210;21.174;2024-01-30T14:18:50;16.88;;;10.65;;
18407;SDS011;9330;52.210;21.174;2024-01-30T14:21:17;17.33;;;10.85;;